Time;durP1;ratioP1;P1;durP2;ratioP2;P2;SDS_P1;SDS_P2;PMS_P1;PMS_P2;Temp;Humidity;BMP_temperature;BMP_pressure;BME280_temperature;BME280_humidity;BME280_pressure;Samples;Min_cycle;Max_cycle;Signal;HPM_P1;HPM_P2
2022/12/05 00:15:14;;;;;;;16.35;6.78;;;13.70;88.80;;;;;;6246533;23;20150;-83
2022/12/05 00:17:40;;;;;;;16.50;5.93;;;13.80;89.50;;;;;;6220787;23;20012;-84
2022/12/05 00:20:07;;;;;;;14.65;5.60;;;13.80;89.40;;;;;;6246036;23;20031;-83
2022/12/05 00:22:37;;;;;;;12.13;5.80;;;13.90;89.40;;;;;;6248789;23;20401;-83
2022/12/05 00:25:04;;;;;;;12.57;4.50;;;13.90;89.60;;;;;;6246216;23;20014;-85
2022/12/05 00:27:30;;;;;;;15.82;5.55;;;14.00;89.70;;;;;;6220725;23;20004;-84
2022/12/05 00:29:56;;;;;;;22.20;6.55;;;14.00;90.00;;;;;;6220314;23;20391;-84
2022/12/05 00:32:22;;;;;;;16.00;4.53;;;14.00;89.90;;;;;;6245614;23;20012;-84
2022/12/05 00:34:47;;;;;;;14.27;4.80;;;14.10;90.00;;;;;;6246936;23;20428;-82
2022/12/05 00:37:13;;;;;;;13.73;5.45;;;14.10;90.20;;;;;;6220339;23;20091;-84
2022/12/05 00:39:39;;;;;;;17.52;5.05;;;14.10;90.20;;;;;;6246904;23;20340;-83
2022/12/05 00:42:05;;;;;;;13.40;4.57;;;14.10;90.30;;;;;;6247023;23;20003;-83
2022/12/05 00:44:31;;;;;;;12.40;4.35;;;14.10;90.40;;;;;;6220088;23;20012;-83
2022/12/05 00:46:57;;;;;;;17.95;5.45;;;14.10;90.40;;;;;;6249452;23;20062;-85
2022/12/05 00:49:22;;;;;;;14.05;5.45;;;14.10;90.50;;;;;;6224561;23;20012;-83
2022/12/05 00:51:48;;;;;;;14.88;5.43;;;14.10;90.50;;;;;;6246563;23;20038;-84
2022/12/05 00:54:15;;;;;;;12.40;5.65;;;14.00;90.50;;;;;;6246435;23;20087;-84
2022/12/05 00:56:40;;;;;;;15.48;5.78;;;13.90;90.50;;;;;;6246922;23;20015;-82
2022/12/05 00:59:07;;;;;;;19.38;6.80;;;13.80;90.40;;;;;;6246460;23;20329;-83
2022/12/05 01:01:35;;;;;;;15.30;5.95;;;13.70;90.50;;;;;;6219478;23;20004;-82
2022/12/05 01:04:05;;;;;;;17.08;6.22;;;13.70;90.50;;;;;;6220363;23;20000;-84
2022/12/05 01:06:31;;;;;;;15.80;6.97;;;13.60;90.50;;;;;;6219856;23;20019;-84
2022/12/05 01:08:57;;;;;;;20.08;6.32;;;13.60;90.40;;;;;;6245207;23;20008;-84
2022/12/05 01:11:24;;;;;;;15.73;6.10;;;13.50;90.40;;;;;;6220239;23;20015;-82
2022/12/05 01:13:50;;;;;;;12.82;5.40;;;13.50;90.50;;;;;;6263271;22;20436;-84
2022/12/05 01:16:25;;;;;;;17.75;6.55;;;13.50;90.40;;;;;;6249972;22;20439;-83
2022/12/05 01:18:51;;;;;;;13.57;6.15;;;13.50;90.30;;;;;;6277755;22;20363;-84
2022/12/05 01:21:17;;;;;;;16.40;6.40;;;13.40;90.30;;;;;;6250234;22;20014;-85
2022/12/05 01:23:43;;;;;;;11.95;4.90;;;13.50;90.40;;;;;;6250496;22;20499;-86
2022/12/05 01:26:11;;;;;;;19.35;5.47;;;13.50;90.40;;;;;;6250145;22;20046;-84
2022/12/05 01:28:38;;;;;;;14.32;5.82;;;13.60;90.50;;;;;;6277286;22;20004;-84
2022/12/05 01:31:07;;;;;;;11.43;5.32;;;13.60;90.50;;;;;;6249580;22;20004;-84
2022/12/05 01:33:34;;;;;;;20.90;6.30;;;13.70;90.50;;;;;;6277126;22;19999;-83
2022/12/05 01:36:01;;;;;;;13.65;5.95;;;13.70;90.40;;;;;;6249862;22;20008;-83
2022/12/05 01:38:27;;;;;;;18.98;6.65;;;13.70;90.50;;;;;;6276640;22;20007;-84
2022/12/05 01:41:05;;;;;;;12.93;5.40;;;13.70;90.50;;;;;;6249440;22;20083;-83
2022/12/05 01:43:31;;;;;;;17.67;5.57;;;13.70;90.30;;;;;;6276625;22;20000;-83
2022/12/05 01:45:57;;;;;;;15.27;5.63;;;13.80;90.50;;;;;;6276656;22;20008;-84
2022/12/05 01:48:35;;;;;;;16.90;4.93;;;13.80;90.60;;;;;;6276422;22;20132;-84
2022/12/05 01:51:02;;;;;;;16.35;5.25;;;13.80;90.60;;;;;;6249119;22;20073;-84
2022/12/05 01:53:28;;;;;;;15.07;4.82;;;13.80;90.60;;;;;;6249553;22;20015;-83
2022/12/05 01:55:55;;;;;;;13.68;4.20;;;13.80;90.70;;;;;;6276389;22;20023;-84
2022/12/05 01:58:23;;;;;;;14.23;5.70;;;13.80;90.80;;;;;;6276991;22;20000;-84
2022/12/05 02:00:50;;;;;;;13.30;4.38;;;13.90;90.90;;;;;;6249846;22;20014;-83
2022/12/05 02:03:18;;;;;;;14.13;5.13;;;13.90;90.90;;;;;;6249092;22;20003;-82
2022/12/05 02:05:47;;;;;;;18.00;5.75;;;13.90;90.90;;;;;;6276301;22;20421;-82
2022/12/05 02:08:13;;;;;;;14.98;5.13;;;13.90;90.90;;;;;;6250157;22;20089;-83
2022/12/05 02:10:45;;;;;;;17.92;4.28;;;14.00;91.00;;;;;;6278059;22;19995;-83
2022/12/05 02:13:42;;;;;;;14.95;4.75;;;14.00;91.00;;;;;;6251258;22;20027;-84
2022/12/05 02:16:20;;;;;;;13.05;5.38;;;13.90;90.80;;;;;;6276782;22;19995;-82
2022/12/05 02:19:17;;;;;;;13.77;5.07;;;13.80;90.90;;;;;;6276457;22;20007;-83
2022/12/05 02:22:04;;;;;;;15.00;6.20;;;13.80;90.90;;;;;;6249517;22;20019;-83
2022/12/05 02:24:57;;;;;;;13.50;5.50;;;13.70;90.80;;;;;;6276363;22;20424;-83
2022/12/05 02:28:01;;;;;;;17.73;5.32;;;13.70;90.80;;;;;;6276738;22;20008;-84
2022/12/05 02:30:37;;;;;;;12.80;6.07;;;13.60;90.80;;;;;;6248651;22;20008;-82
2022/12/05 02:33:09;;;;;;;18.23;6.18;;;13.50;91.00;;;;;;6261684;22;20012;-83
2022/12/05 02:35:58;;;;;;;20.95;6.90;;;13.50;90.80;;;;;;6263647;22;20011;-83
2022/12/05 02:38:35;;;;;;;12.73;6.40;;;13.40;91.00;;;;;;6251719;22;20012;-83
2022/12/05 02:41:25;;;;;;;16.83;6.07;;;13.40;90.90;;;;;;6250525;22;20010;-83
2022/12/05 02:44:17;;;;;;;19.98;7.05;;;13.40;91.00;;;;;;6249596;22;20043;-82
2022/12/05 02:46:46;;;;;;;16.88;6.03;;;13.30;91.00;;;;;;6249363;22;20015;-85
2022/12/05 02:49:17;;;;;;;14.90;6.53;;;13.30;91.10;;;;;;6249265;22;20004;-83
2022/12/05 02:51:52;;;;;;;15.73;5.80;;;13.30;91.20;;;;;;6248979;22;20012;-84
2022/12/05 02:54:23;;;;;;;13.38;5.80;;;13.20;91.20;;;;;;6248657;22;20317;-83
2022/12/05 02:56:49;;;;;;;14.00;5.95;;;13.20;91.20;;;;;;6248851;22;20012;-83
2022/12/05 02:59:15;;;;;;;14.63;5.75;;;13.20;91.30;;;;;;6275956;22;20007;-83
2022/12/05 03:01:44;;;;;;;14.52;6.15;;;13.20;91.20;;;;;;6275889;22;19996;-82
2022/12/05 03:04:12;;;;;;;15.60;5.97;;;13.10;91.30;;;;;;6248909;22;20004;-82
2022/12/05 03:06:47;;;;;;;13.15;5.70;;;13.10;91.30;;;;;;6275936;22;20023;-82
2022/12/05 03:09:21;;;;;;;13.77;6.07;;;13.10;91.30;;;;;;6275695;22;20458;-83
2022/12/05 03:11:52;;;;;;;16.05;6.35;;;13.10;91.30;;;;;;6275660;22;20061;-83
2022/12/05 03:14:33;;;;;;;21.13;6.40;;;13.20;91.40;;;;;;6248557;22;20023;-84
2022/12/05 03:17:04;;;;;;;17.27;6.80;;;13.10;91.30;;;;;;6248718;22;20019;-83
2022/12/05 03:19:57;;;;;;;18.85;6.45;;;13.20;91.30;;;;;;6248749;22;20026;-83
2022/12/05 03:22:32;;;;;;;15.20;6.22;;;13.20;91.30;;;;;;6268174;22;20008;-83
2022/12/05 03:24:59;;;;;;;14.82;6.32;;;13.20;91.40;;;;;;6275827;22;20396;-82
2022/12/05 03:27:44;;;;;;;17.98;6.05;;;13.20;91.30;;;;;;6275733;22;20023;-83
2022/12/05 03:30:14;;;;;;;16.73;6.13;;;13.20;91.30;;;;;;6248687;22;20016;-83
2022/12/05 03:32:52;;;;;;;13.32;6.15;;;13.20;91.30;;;;;;6248256;22;20011;-83
2022/12/05 03:35:23;;;;;;;15.07;5.63;;;13.20;91.30;;;;;;6275879;22;20052;-83
2022/12/05 03:37:54;;;;;;;12.90;5.63;;;13.20;91.30;;;;;;6248590;22;20000;-82
2022/12/05 03:40:52;;;;;;;15.02;5.82;;;13.20;91.30;;;;;;6248755;22;20094;-83
2022/12/05 03:43:34;;;;;;;18.50;5.75;;;13.20;91.40;;;;;;6275783;22;20027;-83
2022/12/05 03:46:30;;;;;;;14.40;6.15;;;13.20;91.30;;;;;;6250172;22;20448;-84
2022/12/05 03:49:01;;;;;;;13.38;5.90;;;13.20;91.30;;;;;;6192615;22;20012;-83
2022/12/05 03:51:44;;;;;;;15.93;5.72;;;13.10;91.40;;;;;;6278405;22;20324;-83
2022/12/05 03:54:18;;;;;;;12.87;6.30;;;13.10;91.40;;;;;;6277993;22;20006;-84
2022/12/05 03:56:50;;;;;;;12.68;6.07;;;13.10;91.50;;;;;;6277806;22;20095;-84
2022/12/05 03:59:24;;;;;;;21.27;7.28;;;13.10;91.40;;;;;;6277511;22;20030;-80
2022/12/05 04:01:52;;;;;;;14.13;5.93;;;13.10;91.40;;;;;;6250468;22;20015;-83
2022/12/05 04:04:27;;;;;;;19.35;5.90;;;13.00;91.50;;;;;;6277592;22;20003;-82
2022/12/05 04:06:57;;;;;;;15.23;6.15;;;13.00;91.60;;;;;;6277386;22;20332;-83
2022/12/05 04:09:35;;;;;;;14.40;5.53;;;13.00;91.60;;;;;;6250349;22;20015;-83
2022/12/05 04:12:09;;;;;;;13.15;5.15;;;12.90;91.60;;;;;;6277891;22;20400;-83
2022/12/05 04:14:43;;;;;;;;;;;12.90;91.60;;;;;;6277530;22;20020;-83
2022/12/05 04:17:41;;;;;;;19.88;6.15;;;12.90;91.50;;;;;;6250319;22;20275;-83
2022/12/05 04:23:07;;;;;;;14.20;6.18;;;12.90;91.50;;;;;;6277536;22;20066;-83
2022/12/05 04:25:53;;;;;;;17.17;6.05;;;12.80;91.50;;;;;;6276963;22;20352;-83
2022/12/05 04:28:26;;;;;;;12.98;5.53;;;12.80;91.60;;;;;;6277360;22;20439;-83
2022/12/05 04:31:07;;;;;;;12.55;5.93;;;12.80;91.60;;;;;;6277234;22;20075;-83
2022/12/05 04:33:49;;;;;;;16.25;5.88;;;12.80;91.70;;;;;;6250544;22;20336;-83
2022/12/05 04:36:21;;;;;;;14.45;5.10;;;12.70;91.60;;;;;;6250029;22;20021;-82
2022/12/05 04:39:08;;;;;;;15.23;5.47;;;12.80;91.70;;;;;;6277325;22;20006;-83
2022/12/05 04:42:13;;;;;;;15.88;5.93;;;12.80;91.70;;;;;;6249968;22;20007;-83
2022/12/05 04:44:49;;;;;;;19.38;6.13;;;12.80;91.70;;;;;;6250901;22;20487;-82
2022/12/05 04:47:17;;;;;;;16.63;5.82;;;12.80;92.00;;;;;;6276930;22;20091;-83
2022/12/05 04:49:44;;;;;;;14.00;5.10;;;12.80;91.70;;;;;;6249779;22;20014;-85
2022/12/05 04:52:11;;;;;;;15.32;5.63;;;12.70;91.80;;;;;;6277099;22;20336;-84
2022/12/05 04:54:46;;;;;;;13.93;5.00;;;12.70;91.90;;;;;;6277103;22;20323;-83
2022/12/05 04:57:20;;;;;;;11.95;5.13;;;12.70;91.80;;;;;;6249597;22;20012;-83
2022/12/05 04:59:46;;;;;;;11.95;5.45;;;12.70;91.80;;;;;;6276963;22;20028;-84
2022/12/05 05:02:17;;;;;;;19.88;6.90;;;12.70;91.80;;;;;;6249617;22;20080;-82
2022/12/05 05:04:49;;;;;;;15.70;5.50;;;12.70;91.80;;;;;;6249890;22;20007;-84
2022/12/05 05:07:16;;;;;;;13.93;5.33;;;12.70;91.70;;;;;;6277267;22;20094;-82
2022/12/05 05:09:43;;;;;;;13.73;5.60;;;12.70;92.10;;;;;;6277147;22;19996;-83
2022/12/05 05:12:10;;;;;;;16.20;5.85;;;12.70;91.80;;;;;;6249854;22;20321;-84
2022/12/05 05:14:35;;;;;;;13.98;5.32;;;12.70;91.80;;;;;;6277945;22;20090;-84
2022/12/05 05:17:02;;;;;;;13.95;5.43;;;12.70;91.90;;;;;;6251498;22;20459;-83
2022/12/05 05:19:28;;;;;;;12.60;5.05;;;12.70;91.80;;;;;;6278407;22;19996;-84
2022/12/05 05:21:53;;;;;;;11.82;4.82;;;12.70;91.80;;;;;;6279763;22;20000;-82
2022/12/05 05:24:22;;;;;;;17.17;7.35;;;12.70;91.80;;;;;;6277628;22;20305;-82
2022/12/05 05:26:48;;;;;;;17.45;5.97;;;12.70;91.90;;;;;;6276939;22;20011;-83
2022/12/05 05:29:17;;;;;;;14.52;5.50;;;12.70;91.80;;;;;;6276550;22;20070;-80
2022/12/05 05:31:43;;;;;;;18.65;5.20;;;12.70;91.90;;;;;;6250717;22;20383;-84
2022/12/05 05:34:10;;;;;;;13.27;5.55;;;12.60;91.90;;;;;;6283878;22;20428;-82
2022/12/05 05:36:37;;;;;;;15.48;5.55;;;12.60;91.80;;;;;;6285407;22;20000;-83
2022/12/05 05:39:03;;;;;;;18.00;5.22;;;12.60;91.90;;;;;;6286472;22;20022;-82
2022/12/05 05:41:35;;;;;;;17.48;5.80;;;12.60;91.80;;;;;;6279970;22;20012;-82
2022/12/05 05:44:01;;;;;;;13.27;5.40;;;12.60;91.90;;;;;;6279382;22;19996;-84
2022/12/05 05:46:31;;;;;;;16.67;5.60;;;12.60;91.90;;;;;;6250413;22;20016;-84
2022/12/05 05:48:56;;;;;;;10.77;5.55;;;12.60;91.90;;;;;;6276743;22;20337;-83
2022/12/05 05:51:26;;;;;;;14.73;6.18;;;12.70;91.90;;;;;;6249532;22;20007;-84
2022/12/05 05:53:53;;;;;;;16.58;8.55;;;12.70;91.80;;;;;;6249639;22;20004;-82
2022/12/05 05:56:19;;;;;;;13.73;6.22;;;12.70;91.90;;;;;;6276695;22;20003;-83
2022/12/05 05:58:46;;;;;;;15.45;5.93;;;12.80;91.90;;;;;;6249333;22;20014;-83
2022/12/05 06:01:21;;;;;;;17.90;5.38;;;12.80;91.90;;;;;;6249614;22;20008;-83
2022/12/05 06:03:46;;;;;;;14.98;6.35;;;12.80;91.90;;;;;;6276250;22;20006;-84
2022/12/05 06:06:13;;;;;;;12.88;4.57;;;12.80;91.90;;;;;;6276068;22;20012;-83
2022/12/05 06:08:41;;;;;;;13.45;5.90;;;12.80;91.80;;;;;;6249290;22;20004;-82
2022/12/05 06:11:12;;;;;;;14.65;5.50;;;12.80;91.80;;;;;;6249157;22;20052;-82
2022/12/05 06:13:38;;;;;;;20.05;4.75;;;12.80;91.90;;;;;;6275839;22;20019;-82
2022/12/05 06:16:06;;;;;;;13.82;5.28;;;12.80;91.90;;;;;;6277282;22;20428;-82
2022/12/05 06:18:33;;;;;;;17.13;4.65;;;12.80;91.90;;;;;;6277241;22;20439;-83
2022/12/05 06:20:59;;;;;;;16.80;5.68;;;12.80;92.00;;;;;;6261205;22;20003;-82
2022/12/05 06:23:25;;;;;;;15.98;4.78;;;12.80;92.00;;;;;;6265704;22;20014;-82
2022/12/05 06:25:53;;;;;;;14.27;3.85;;;12.90;92.00;;;;;;6255518;22;20016;-83
2022/12/05 06:28:20;;;;;;;15.60;4.43;;;12.90;91.90;;;;;;6249139;22;20003;-83
2022/12/05 06:30:46;;;;;;;17.48;4.60;;;12.90;91.90;;;;;;6276443;22;20034;-82
2022/12/05 06:33:12;;;;;;;15.32;4.10;;;13.00;91.90;;;;;;6276288;22;20000;-84
2022/12/05 06:35:38;;;;;;;16.67;4.90;;;13.00;91.80;;;;;;6248868;22;20141;-83
2022/12/05 06:38:05;;;;;;;13.05;4.07;;;13.00;91.70;;;;;;6276117;22;20000;-82
2022/12/05 06:40:31;;;;;;;16.33;3.80;;;13.00;91.80;;;;;;6276290;22;20004;-83
2022/12/05 06:42:56;;;;;;;15.50;3.33;;;13.10;91.70;;;;;;6276201;22;20026;-82
2022/12/05 06:45:22;;;;;;;13.05;3.92;;;13.10;91.60;;;;;;6275906;22;20397;-84
2022/12/05 06:47:49;;;;;;;15.32;3.75;;;13.10;91.60;;;;;;6248740;22;20008;-84
2022/12/05 06:50:15;;;;;;;15.95;3.88;;;13.20;91.50;;;;;;6248507;22;20472;-83
2022/12/05 06:52:40;;;;;;;16.65;4.70;;;13.20;91.50;;;;;;6275953;22;20079;-84
2022/12/05 06:55:06;;;;;;;12.48;4.13;;;13.30;91.40;;;;;;6276250;22;20087;-83
2022/12/05 06:57:32;;;;;;;14.10;4.10;;;13.40;91.40;;;;;;6249210;22;20004;-83
2022/12/05 07:02:42;;;;;;;15.48;4.05;;;13.50;91.30;;;;;;6276296;22;20383;-83
2022/12/05 07:05:09;;;;;;;16.77;4.88;;;13.60;91.30;;;;;;6276353;22;20000;-83
2022/12/05 07:07:35;;;;;;;18.13;4.60;;;13.70;91.30;;;;;;6250526;22;20440;-84
2022/12/05 07:10:01;;;;;;;14.32;4.00;;;13.70;91.10;;;;;;6249314;22;20483;-84
2022/12/05 07:12:27;;;;;;;9.75;3.30;;;13.70;91.00;;;;;;6276140;22;20443;-86
2022/12/05 07:14:53;;;;;;;13.13;3.95;;;13.80;91.10;;;;;;6275827;22;20015;-84
2022/12/05 07:17:20;;;;;;;17.65;5.22;;;13.80;91.00;;;;;;6275540;22;19996;-84
2022/12/05 07:19:49;;;;;;;13.15;5.18;;;13.90;91.00;;;;;;6248988;22;20042;-83
2022/12/05 07:22:16;;;;;;;16.63;4.72;;;13.90;91.00;;;;;;6276404;22;20004;-82
2022/12/05 07:24:43;;;;;;;14.68;4.15;;;14.00;91.00;;;;;;6249918;22;20003;-82
2022/12/05 07:27:09;;;;;;;14.95;4.80;;;14.10;91.00;;;;;;6250535;22;20016;-82
2022/12/05 07:29:35;;;;;;;16.75;4.95;;;14.10;90.80;;;;;;6277905;22;20011;-83
2022/12/05 07:32:01;;;;;;;14.57;4.20;;;14.20;91.10;;;;;;6250813;22;20107;-83
2022/12/05 07:34:27;;;;;;;11.93;4.70;;;14.20;90.80;;;;;;6250526;22;20003;-84
2022/12/05 07:36:53;;;;;;;14.00;3.78;;;14.30;90.70;;;;;;6250709;22;20329;-82
2022/12/05 07:39:18;;;;;;;16.77;4.68;;;14.30;90.60;;;;;;6250826;22;20033;-84
2022/12/05 07:41:44;;;;;;;22.00;4.45;;;14.30;90.60;;;;;;6250683;22;20302;-83
2022/12/05 07:44:11;;;;;;;16.45;5.22;;;14.30;90.60;;;;;;6250182;22;20065;-82
2022/12/05 07:46:38;;;;;;;16.50;5.03;;;14.30;90.60;;;;;;6277184;22;20085;-83
2022/12/05 07:49:03;;;;;;;17.27;5.00;;;14.30;90.60;;;;;;6250489;22;20083;-82
2022/12/05 07:51:30;;;;;;;12.98;4.30;;;14.30;90.60;;;;;;6279739;22;20022;-82
2022/12/05 07:53:57;;;;;;;18.33;4.88;;;14.30;90.40;;;;;;6277769;22;20003;-83
2022/12/05 07:56:23;;;;;;;22.73;5.18;;;14.30;90.60;;;;;;6277291;22;20309;-83
2022/12/05 07:58:49;;;;;;;13.57;4.30;;;14.30;90.50;;;;;;6277333;22;20003;-84
2022/12/05 08:01:16;;;;;;;13.90;4.50;;;14.30;90.60;;;;;;6277253;22;20003;-84
2022/12/05 08:03:43;;;;;;;13.70;4.72;;;14.30;90.50;;;;;;6249964;22;20004;-83
2022/12/05 08:06:13;;;;;;;19.25;5.97;;;14.30;90.50;;;;;;6249977;22;20011;-83
2022/12/05 08:08:39;;;;;;;17.25;5.07;;;14.40;90.50;;;;;;6250176;22;20046;-83
2022/12/05 08:11:08;;;;;;;17.58;5.13;;;14.40;90.50;;;;;;6277532;22;20003;-83
2022/12/05 08:13:33;;;;;;;18.73;4.78;;;14.40;90.50;;;;;;6249510;22;20027;-82
2022/12/05 08:16:01;;;;;;;18.33;5.50;;;14.50;90.40;;;;;;6249773;22;20011;-84
2022/12/05 08:18:27;;;;;;;16.80;5.32;;;14.50;90.50;;;;;;6249993;22;19999;-82
2022/12/05 08:20:52;;;;;;;21.95;6.28;;;14.60;90.50;;;;;;6250331;22;20012;-83
2022/12/05 08:23:18;;;;;;;21.20;5.38;;;14.60;90.50;;;;;;6249673;22;20038;-83
2022/12/05 08:25:44;;;;;;;23.30;5.50;;;14.70;90.50;;;;;;6277020;22;20008;-84
2022/12/05 08:28:11;;;;;;;22.00;5.72;;;14.70;90.50;;;;;;6249802;22;20012;-82
2022/12/05 08:30:36;;;;;;;23.27;5.88;;;14.80;90.30;;;;;;6279307;22;19996;-83
2022/12/05 08:33:02;;;;;;;13.63;5.32;;;14.90;90.40;;;;;;6251855;22;20018;-84
2022/12/05 08:35:28;;;;;;;24.92;5.63;;;15.00;90.40;;;;;;6251194;22;20083;-83
2022/12/05 08:37:53;;;;;;;13.27;4.63;;;15.00;90.40;;;;;;6278681;22;20000;-82
2022/12/05 08:40:19;;;;;;;21.23;5.53;;;15.10;90.40;;;;;;6279133;22;19995;-83
2022/12/05 08:42:45;;;;;;;25.55;5.53;;;15.10;90.50;;;;;;6279019;22;20012;-84
2022/12/05 08:45:11;;;;;;;19.88;4.75;;;15.20;90.40;;;;;;6279824;22;20053;-84
2022/12/05 08:47:36;;;;;;;21.33;6.00;;;15.30;90.40;;;;;;6251943;22;20015;-85
2022/12/05 08:50:02;;;;;;;17.20;5.28;;;15.30;90.40;;;;;;6278263;22;20086;-84
2022/12/05 08:52:29;;;;;;;33.42;5.15;;;15.40;90.50;;;;;;6250246;22;20443;-84
2022/12/05 08:54:54;;;;;;;20.25;5.28;;;15.40;90.40;;;;;;6277858;22;20000;-84
2022/12/05 08:57:20;;;;;;;19.77;5.70;;;15.40;90.40;;;;;;6250992;22;20451;-84
2022/12/05 08:59:46;;;;;;;20.38;5.50;;;15.60;90.50;;;;;;6278299;22;20328;-84
2022/12/05 09:02:11;;;;;;;20.20;5.78;;;15.70;90.30;;;;;;6250576;22;20061;-84
2022/12/05 09:04:37;;;;;;;22.42;4.90;;;15.90;90.20;;;;;;6277281;22;20018;-84
2022/12/05 09:07:03;;;;;;;18.80;5.18;;;16.00;90.10;;;;;;6276735;22;20082;-84
2022/12/05 09:09:29;;;;;;;27.95;5.50;;;16.10;90.10;;;;;;6277283;22;20170;-84
2022/12/05 09:11:56;;;;;;;27.08;5.07;;;16.20;90.20;;;;;;6277196;22;20018;-83
2022/12/05 09:14:23;;;;;;;21.88;4.20;;;16.30;90.10;;;;;;6249866;22;20047;-85
2022/12/05 09:16:48;;;;;;;28.77;4.80;;;16.50;90.00;;;;;;6261302;22;20317;-84
2022/12/05 09:19:17;;;;;;;23.25;4.40;;;16.70;89.60;;;;;;6271019;22;20011;-84
2022/12/05 09:21:43;;;;;;;21.75;4.22;;;16.90;88.90;;;;;;6295966;22;20007;-85
2022/12/05 09:24:11;;;;;;;18.80;4.05;;;17.00;88.30;;;;;;6250420;22;20003;-85
2022/12/05 09:26:36;;;;;;;15.75;3.10;;;17.10;88.10;;;;;;6277428;22;20012;-85
2022/12/05 09:29:02;;;;;;;22.42;3.90;;;17.20;87.90;;;;;;6276961;22;20019;-85
2022/12/05 09:31:29;;;;;;;15.27;3.40;;;17.30;87.90;;;;;;6249634;22;20007;-85
2022/12/05 09:33:55;;;;;;;21.58;4.63;;;17.40;87.70;;;;;;6250215;22;20008;-85
2022/12/05 09:36:23;;;;;;;24.55;4.03;;;17.50;87.80;;;;;;6276950;22;20301;-85
2022/12/05 09:38:49;;;;;;;21.55;4.05;;;17.50;87.70;;;;;;6277706;22;20024;-85
2022/12/05 09:42:03;;;;;;;32.60;5.13;;;17.40;87.60;;;;;;6277470;22;20105;-84
2022/12/05 09:44:14;;;;;;;22.92;5.38;;;17.40;87.80;;;;;;6277239;22;20000;-84
2022/12/05 09:46:59;;;;;;;21.90;4.57;;;17.50;88.30;;;;;;6250421;22;20020;-85
2022/12/05 09:49:25;;;;;;;21.88;4.03;;;17.70;88.00;;;;;;6249971;22;20004;-83
2022/12/05 09:51:54;;;;;;;21.98;4.43;;;17.80;87.00;;;;;;6257827;22;20012;-84
2022/12/05 09:54:21;;;;;;;18.67;4.05;;;17.90;86.70;;;;;;6289490;22;20000;-83
2022/12/05 09:56:50;;;;;;;15.35;4.57;;;17.90;86.70;;;;;;6278595;22;20003;-83
2022/12/05 09:59:19;;;;;;;23.73;4.72;;;17.90;86.40;;;;;;6250561;22;20343;-84
2022/12/05 10:02:13;;;;;;;23.25;5.15;;;17.90;86.50;;;;;;6250345;22;20408;-84
2022/12/05 10:05:00;;;;;;;19.30;4.75;;;17.90;86.80;;;;;;6277432;22;20011;-84
2022/12/05 10:07:58;;;;;;;23.80;4.90;;;17.90;86.50;;;;;;6249994;22;20348;-84
2022/12/05 10:10:41;;;;;;;19.35;4.43;;;17.90;85.80;;;;;;6276988;22;20324;-85
2022/12/05 10:13:36;;;;;;;22.97;4.83;;;17.90;86.20;;;;;;6276703;22;20011;-85
2022/12/05 10:16:11;;;;;;;22.25;5.28;;;18.00;86.80;;;;;;6195292;22;20235;-85
2022/12/05 10:18:44;;;;;;;20.15;4.22;;;18.00;85.70;;;;;;6276539;22;20000;-85
2022/12/05 10:21:30;;;;;;;15.77;4.93;;;18.00;85.60;;;;;;6250847;22;20012;-85
2022/12/05 10:23:57;;;;;;;21.60;5.32;;;18.00;85.40;;;;;;6276752;22;20390;-85
2022/12/05 10:26:33;;;;;;;15.70;4.00;;;17.90;85.80;;;;;;6249795;22;20441;-83
2022/12/05 10:29:19;;;;;;;22.25;4.03;;;17.80;86.20;;;;;;6249434;22;20439;-84
2022/12/05 10:31:48;;;;;;;22.40;4.35;;;18.00;86.30;;;;;;6250454;22;20007;-83
2022/12/05 10:34:17;;;;;;;17.98;4.15;;;18.10;85.60;;;;;;6277376;22;20424;-83
2022/12/05 10:37:13;;;;;;;22.88;3.88;;;18.20;85.50;;;;;;6249734;22;20019;-85
2022/12/05 10:39:39;;;;;;;24.38;4.18;;;18.20;85.40;;;;;;6275598;22;20008;-85
2022/12/05 10:42:11;;;;;;;19.67;4.35;;;18.30;85.10;;;;;;6258032;22;20007;-84
2022/12/05 10:44:37;;;;;;;26.75;3.92;;;18.30;85.10;;;;;;6294442;22;19999;-84
2022/12/05 10:47:02;;;;;;;24.00;5.13;;;18.40;84.90;;;;;;6269655;22;20042;-85
2022/12/05 10:49:30;;;;;;;19.38;3.67;;;18.40;84.80;;;;;;6253383;22;20106;-84
2022/12/05 10:51:56;;;;;;;20.55;4.15;;;18.50;84.60;;;;;;6250344;22;20360;-85
2022/12/05 10:54:28;;;;;;;18.40;4.53;;;18.60;84.80;;;;;;6277565;22;20083;-84
2022/12/05 10:56:54;;;;;;;21.45;5.38;;;18.60;84.80;;;;;;6278083;22;20000;-85
2022/12/05 10:59:23;;;;;;;20.13;4.60;;;18.60;84.60;;;;;;6251036;22;20347;-86
2022/12/05 11:01:54;;;;;;;19.90;3.90;;;18.70;84.50;;;;;;6252485;22;20087;-84
2022/12/05 11:04:23;;;;;;;17.60;3.75;;;18.70;84.50;;;;;;6251492;22;20503;-85
2022/12/05 11:06:58;;;;;;;23.55;4.30;;;18.80;84.40;;;;;;6279378;22;20448;-85
2022/12/05 11:09:28;;;;;;;31.00;6.05;;;18.80;84.40;;;;;;6251764;22;20004;-84
2022/12/05 11:12:16;;;;;;;25.17;4.35;;;18.90;84.40;;;;;;6279109;22;20003;-86
2022/12/05 11:15:03;;;;;;;30.05;4.90;;;19.00;84.00;;;;;;6279094;22;20020;-83
2022/12/05 11:17:35;;;;;;;27.85;5.18;;;19.00;83.60;;;;;;6252803;22;20011;-84
2022/12/05 11:20:02;;;;;;;19.55;5.57;;;19.00;83.50;;;;;;6257810;22;20092;-84
2022/12/05 11:22:33;;;;;;;23.63;6.25;;;19.00;83.00;;;;;;6290862;22;20034;-84
2022/12/05 11:24:59;;;;;;;16.25;4.00;;;19.10;82.80;;;;;;6261904;22;20007;-82
2022/12/05 11:27:28;;;;;;;22.20;4.35;;;19.00;81.90;;;;;;6289414;22;20012;-84
2022/12/05 11:30:00;;;;;;;19.95;3.67;;;19.00;81.70;;;;;;6282429;22;20010;-84
2022/12/05 11:32:30;;;;;;;19.85;4.35;;;19.10;81.50;;;;;;6254058;22;20014;-84
2022/12/05 11:35:12;;;;;;;17.92;4.75;;;19.10;81.70;;;;;;6255870;22;20061;-83
2022/12/05 11:37:52;;;;;;;17.17;4.47;;;19.00;81.80;;;;;;6281211;22;20047;-84
2022/12/05 11:40:34;;;;;;;18.25;4.63;;;19.00;81.70;;;;;;6253640;22;20386;-86
2022/12/05 11:43:02;;;;;;;17.52;4.30;;;19.00;81.60;;;;;;6252159;22;20447;-85
2022/12/05 11:46:03;;;;;;;15.05;3.63;;;19.00;81.60;;;;;;6278584;22;19996;-85
2022/12/05 11:48:38;;;;;;;19.70;4.70;;;19.10;81.20;;;;;;6251795;22;20030;-84
2022/12/05 11:51:03;;;;;;;17.67;3.88;;;19.00;80.90;;;;;;6278806;22;20000;-85
2022/12/05 11:54:08;;;;;;;20.88;4.38;;;18.90;81.00;;;;;;6279536;22;20027;-84
2022/12/05 11:56:33;;;;;;;;;;;18.90;81.50;;;;;;6284267;22;19996;-83
2022/12/05 11:59:14;;;;;;;19.48;4.47;;;18.70;80.70;;;;;;6293845;22;19906;-83
2022/12/05 12:01:58;;;;;;;18.00;3.70;;;18.70;81.50;;;;;;6251112;22;20004;-84
2022/12/05 12:04:33;;;;;;;17.40;3.13;;;18.70;80.80;;;;;;6250876;22;20015;-84
2022/12/05 12:07:21;;;;;;;22.17;4.38;;;18.80;80.60;;;;;;6278662;22;20087;-85
2022/12/05 12:09:47;;;;;;;22.27;9.45;;;19.10;80.10;;;;;;6278537;22;20423;-84
2022/12/05 12:12:58;;;;;;;24.30;5.82;;;19.20;79.30;;;;;;6278744;22;20011;-85
2022/12/05 12:15:42;;;;;;;15.23;3.47;;;19.30;79.50;;;;;;6220818;23;20074;-86
2022/12/05 12:18:15;;;;;;;25.35;4.80;;;19.30;79.50;;;;;;6248853;23;20364;-84
2022/12/05 12:20:57;;;;;;;23.67;4.57;;;19.40;79.00;;;;;;6247501;23;20023;-84
2022/12/05 12:23:58;;;;;;;16.35;4.15;;;19.60;79.00;;;;;;6246946;23;20014;-85
2022/12/05 12:26:32;;;;;;;24.35;4.05;;;19.90;78.50;;;;;;6144705;23;20020;-84
2022/12/05 12:29:35;;;;;;;16.95;3.83;;;19.90;77.30;;;;;;6247331;23;20136;-85
2022/12/05 12:32:35;;;;;;;17.42;3.85;;;19.90;77.20;;;;;;6247037;23;20026;-85
2022/12/05 12:35:22;;;;;;;19.00;4.35;;;19.90;76.80;;;;;;6241930;23;20012;-84
2022/12/05 12:38:13;;;;;;;17.63;3.60;;;19.90;76.00;;;;;;6247408;23;20023;-84
2022/12/05 12:40:44;;;;;;;19.60;3.45;;;19.80;76.30;;;;;;6247908;23;20043;-84
2022/12/05 12:43:27;;;;;;;19.92;4.40;;;19.70;75.70;;;;;;6219826;23;20027;-85
2022/12/05 12:46:28;;;;;;;19.80;4.55;;;19.70;76.40;;;;;;6219517;23;20074;-84
2022/12/05 12:49:22;;;;;;;32.45;4.95;;;19.40;76.30;;;;;;6246280;23;20004;-85
2022/12/05 12:52:00;;;;;;;22.30;4.40;;;19.20;77.20;;;;;;6246933;23;20382;-85
2022/12/05 12:54:42;;;;;;;24.52;4.25;;;19.10;77.00;;;;;;6248377;23;20000;-84
2022/12/05 12:57:19;;;;;;;23.80;4.13;;;19.10;77.60;;;;;;6220049;23;20012;-84
2022/12/05 13:00:11;;;;;;;19.60;4.82;;;19.10;77.70;;;;;;6250062;23;20008;-86
2022/12/05 13:02:47;;;;;;;18.17;3.55;;;19.10;76.50;;;;;;6246977;23;20000;-84
2022/12/05 13:05:29;;;;;;;16.58;3.58;;;19.20;77.00;;;;;;6247313;23;20011;-85
2022/12/05 13:08:22;;;;;;;15.90;4.20;;;19.30;76.00;;;;;;6247370;23;20012;-86
2022/12/05 13:10:48;;;;;;;20.65;5.13;;;19.30;75.70;;;;;;6247210;23;20082;-85
2022/12/05 13:13:22;;;;;;;17.15;3.90;;;19.40;75.60;;;;;;6222555;23;20086;-85
2022/12/05 13:15:55;;;;;;;22.23;4.28;;;19.60;75.00;;;;;;6244854;23;20000;-86
2022/12/05 13:18:23;;;;;;;23.15;5.35;;;19.70;74.80;;;;;;6247135;23;20436;-85
2022/12/05 13:21:02;;;;;;;18.73;4.75;;;19.70;74.40;;;;;;6246421;23;20008;-86
2022/12/05 13:23:33;;;;;;;21.40;5.07;;;19.70;73.90;;;;;;6245685;23;19996;-83